createdAt,value
2018-06-25T00:00:01.443Z,84.23
2018-06-25T00:01:09.495Z,84.14
2018-06-25T00:02:17.556Z,84.52
2018-06-25T00:03:25.635Z,84.62
2018-06-25T00:04:33.706Z,84.23
2018-06-25T00:05:41.787Z,84.23
2018-06-25T00:06:49.835Z,83.86
2018-06-25T00:07:57.922Z,84.52
2018-06-25T00:09:05.985Z,84.52
2018-06-25T00:10:14.049Z,84.43
2018-06-25T00:11:22.104Z,84.23
2018-06-25T00:12:30.176Z,84.05
2018-06-25T00:13:38.254Z,84.33
2018-06-25T00:14:46.315Z,84.05
2018-06-25T00:15:54.387Z,83.47
2018-06-25T00:17:02.448Z,83.38
2018-06-25T00:18:10.517Z,83.47
2018-06-25T00:19:18.576Z,83.38
2018-06-25T00:20:26.649Z,83.28
2018-06-25T00:21:34.713Z,84.05
2018-06-25T00:22:42.781Z,84.05
2018-06-25T00:23:50.860Z,84.14
2018-06-25T00:24:58.914Z,84.33
2018-06-25T00:26:06.955Z,84.23
2018-06-25T00:27:15.051Z,83.95
2018-06-25T00:28:23.108Z,84.10
2018-06-25T00:29:31.192Z,84.52
2018-06-25T00:30:39.259Z,84.23
2018-06-25T00:31:47.288Z,84.39
2018-06-25T00:32:55.384Z,84.77
2018-06-25T00:34:03.480Z,84.72
2018-06-25T00:35:11.523Z,84.39
2018-06-25T00:36:19.585Z,84.48
2018-06-25T00:37:27.766Z,84.10
2018-06-25T00:38:35.718Z,84.20
2018-06-25T00:39:43.780Z,84.86
2018-06-25T00:40:51.827Z,84.48
2018-06-25T00:41:59.902Z,84.20
2018-06-25T00:43:07.978Z,84.00
2018-06-25T00:44:16.043Z,84.05
2018-06-25T00:45:24.094Z,84.58
2018-06-25T00:46:32.168Z,84.67
2018-06-25T00:47:40.276Z,83.91
2018-06-25T00:48:48.301Z,83.91
2018-06-25T00:49:56.370Z,83.18
2018-06-25T00:51:04.435Z,83.47
2018-06-25T00:52:12.509Z,83.47
2018-06-25T00:53:20.555Z,83.24
2018-06-25T00:54:28.627Z,83.43
2018-06-25T00:55:36.694Z,83.62
2018-06-25T00:56:44.769Z,83.43
2018-06-25T00:57:52.838Z,83.67
2018-06-25T00:59:00.893Z,83.34
2018-06-25T01:00:08.974Z,83.24
2018-06-25T01:01:17.023Z,83.24
2018-06-25T01:02:25.101Z,82.57
2018-06-25T01:03:33.180Z,82.95
2018-06-25T01:04:41.243Z,82.86
2018-06-25T01:05:49.319Z,82.67
2018-06-25T01:06:57.356Z,82.67
2018-06-25T01:08:05.445Z,82.67
2018-06-25T01:09:13.503Z,83.47
2018-06-25T01:10:21.581Z,83.34
2018-06-25T01:11:29.648Z,82.67
2018-06-25T01:12:37.705Z,83.05
2018-06-25T01:13:45.778Z,83.24
2018-06-25T01:14:53.838Z,82.76
2018-06-25T01:16:01.913Z,82.67
2018-06-25T01:17:09.985Z,82.57
2018-06-25T01:18:18.038Z,82.67
2018-06-25T01:19:26.122Z,82.57
2018-06-25T01:20:34.187Z,82.67
2018-06-25T01:21:42.249Z,82.71
2018-06-25T01:22:50.328Z,82.76
2018-06-25T01:23:58.388Z,83.24
2018-06-25T01:25:06.437Z,83.05
2018-06-25T01:26:14.509Z,83.53
2018-06-25T01:27:22.593Z,83.62
2018-06-25T01:28:30.668Z,83.34
2018-06-25T01:29:38.722Z,83.05
2018-06-25T01:30:46.773Z,83.72
2018-06-25T01:31:54.872Z,83.34
2018-06-25T01:33:02.935Z,83.62
2018-06-25T01:34:10.990Z,83.18
2018-06-25T01:35:19.064Z,83.24
2018-06-25T01:36:27.104Z,83.14
2018-06-25T01:37:35.198Z,83.24
2018-06-25T01:38:43.254Z,83.43
2018-06-25T01:39:51.334Z,83.43
2018-06-25T01:40:59.393Z,83.24
2018-06-25T01:42:07.439Z,83.86
2018-06-25T01:43:15.531Z,83.28
2018-06-25T01:44:23.596Z,83.43
2018-06-25T01:45:31.672Z,82.67
2018-06-25T01:46:39.734Z,83.28
2018-06-25T01:47:47.838Z,83.43
2018-06-25T01:48:55.874Z,82.57
2018-06-25T01:50:03.927Z,82.67
2018-06-25T01:51:12.007Z,82.81
2018-06-25T01:52:20.074Z,82.52
2018-06-25T01:53:28.139Z,82.71
2018-06-25T01:54:36.192Z,82.86
2018-06-25T01:55:44.259Z,83.18
2018-06-25T01:56:52.345Z,83.18
2018-06-25T01:58:00.403Z,83.18
2018-06-25T01:59:08.484Z,83.14
2018-06-25T02:00:16.541Z,83.43
2018-06-25T02:01:24.605Z,84.29
2018-06-25T02:02:32.688Z,84.10
2018-06-25T02:03:40.743Z,84.10
2018-06-25T02:04:48.813Z,84.10
2018-06-25T02:05:56.875Z,84.39
2018-06-25T02:07:04.935Z,84.86
2018-06-25T02:08:13.007Z,84.58
2018-06-25T02:09:21.083Z,85.34
2018-06-25T02:10:29.130Z,85.44
2018-06-25T02:11:37.187Z,84.67
2018-06-25T02:12:45.279Z,85.34
2018-06-25T02:13:53.350Z,85.25
2018-06-25T02:15:01.412Z,85.44
2018-06-25T02:16:09.481Z,85.63
2018-06-25T02:17:17.496Z,85.34
2018-06-25T02:18:25.596Z,85.15
2018-06-25T02:19:33.667Z,85.72
2018-06-25T02:20:41.746Z,85.34
2018-06-25T02:21:49.800Z,85.44
2018-06-25T02:22:57.852Z,85.34
2018-06-25T02:24:05.915Z,84.86
2018-06-25T02:25:13.983Z,85.53
2018-06-25T02:26:22.057Z,85.63
2018-06-25T02:27:30.123Z,85.91
2018-06-25T02:28:38.187Z,85.72
2018-06-25T02:29:46.248Z,86.68
2018-06-25T02:30:54.323Z,86.39
2018-06-25T02:32:02.383Z,86.49
2018-06-25T02:33:10.434Z,86.20
2018-06-25T02:34:18.505Z,86.68
2018-06-25T02:35:26.584Z,86.49
2018-06-25T02:36:34.642Z,86.58
2018-06-25T02:37:42.714Z,86.44
2018-06-25T02:38:50.774Z,86.73
2018-06-25T02:39:58.827Z,86.35
2018-06-25T02:41:06.878Z,87.02
2018-06-25T02:42:14.986Z,86.44
2018-06-25T02:43:23.033Z,86.82
2018-06-25T02:44:31.102Z,86.73
2018-06-25T02:45:39.160Z,86.73
2018-06-25T02:46:47.196Z,86.92
2018-06-25T02:47:55.300Z,86.54
2018-06-25T02:49:03.371Z,86.82
2018-06-25T02:50:11.413Z,86.82
2018-06-25T02:51:19.484Z,87.11
2018-06-25T02:52:27.518Z,87.11
2018-06-25T02:53:35.622Z,87.21
2018-06-25T02:54:43.674Z,86.92
2018-06-25T02:55:51.741Z,86.82
2018-06-25T02:56:59.817Z,86.92
2018-06-25T02:58:07.867Z,86.82
2018-06-25T02:59:15.954Z,86.73
2018-06-25T03:00:24.019Z,86.82
2018-06-25T03:01:32.075Z,87.11
2018-06-25T03:02:40.136Z,85.58
2018-06-25T03:03:48.223Z,86.82
2018-06-25T03:04:56.260Z,87.21
2018-06-25T03:06:04.337Z,86.82
2018-06-25T03:07:12.408Z,87.02
2018-06-25T03:08:20.460Z,87.49
2018-06-25T03:09:28.533Z,86.92
2018-06-25T03:10:36.602Z,86.63
2018-06-25T03:11:44.679Z,86.92
2018-06-25T03:12:52.740Z,87.68
2018-06-25T03:14:00.805Z,87.11
2018-06-25T03:15:08.863Z,86.82
2018-06-25T03:16:16.916Z,87.02
2018-06-25T03:17:25.002Z,87.49
2018-06-25T03:18:33.062Z,87.21
2018-06-25T03:19:41.129Z,87.49
2018-06-25T03:20:49.191Z,87.11
2018-06-25T03:21:57.231Z,87.11
2018-06-25T03:23:05.319Z,87.49
2018-06-25T03:24:13.397Z,87.30
2018-06-25T03:25:21.441Z,87.40
2018-06-25T03:26:29.518Z,87.40
2018-06-25T03:27:37.557Z,87.21
2018-06-25T03:28:45.660Z,86.82
2018-06-25T03:29:53.713Z,87.21
2018-06-25T03:31:01.781Z,87.21
2018-06-25T03:32:09.845Z,86.63
2018-06-25T03:33:17.901Z,87.02
2018-06-25T03:34:25.968Z,87.21
2018-06-25T03:35:34.037Z,86.82
2018-06-25T03:36:42.105Z,87.30
2018-06-25T03:37:50.167Z,87.30
2018-06-25T03:38:58.223Z,87.11
2018-06-25T03:40:06.299Z,86.82
2018-06-25T03:41:14.366Z,87.21
2018-06-25T03:42:22.450Z,86.82
2018-06-25T03:43:30.503Z,87.30
2018-06-25T03:44:38.562Z,87.30
2018-06-25T03:45:46.632Z,87.40
2018-06-25T03:46:54.677Z,86.82
2018-06-25T03:48:02.771Z,87.35
2018-06-25T03:49:10.824Z,87.49
2018-06-25T03:50:18.898Z,87.40
2018-06-25T03:51:28.446Z,86.82
2018-06-25T03:52:35.005Z,87.21
2018-06-25T03:53:43.077Z,86.82
2018-06-25T03:54:51.143Z,87.02
2018-06-25T03:55:59.216Z,87.02
2018-06-25T03:57:07.257Z,86.73
2018-06-25T03:58:15.358Z,86.54
2018-06-25T03:59:23.414Z,86.44
2018-06-25T04:00:31.484Z,86.54
2018-06-25T04:01:39.537Z,86.35
2018-06-25T04:02:48.167Z,86.44
2018-06-25T04:03:55.677Z,86.16
2018-06-25T04:05:03.734Z,87.02
2018-06-25T04:06:11.802Z,86.63
2018-06-25T04:07:20.987Z,86.44
2018-06-25T04:08:27.932Z,86.54
2018-06-25T04:09:36.031Z,86.54
2018-06-25T04:10:44.052Z,86.54
2018-06-25T04:11:52.152Z,86.63
2018-06-25T04:13:00.202Z,86.25
2018-06-25T04:14:08.275Z,86.82
2018-06-25T04:15:17.019Z,86.16
2018-06-25T04:16:24.389Z,86.44
2018-06-25T04:17:32.459Z,86.92
2018-06-25T04:18:40.519Z,86.92
2018-06-25T04:19:48.598Z,86.44
2018-06-25T04:20:56.648Z,86.82
2018-06-25T04:22:04.734Z,87.11
2018-06-25T04:23:12.782Z,86.54
2018-06-25T04:24:20.851Z,86.87
2018-06-25T04:25:28.912Z,86.63
2018-06-25T04:26:36.967Z,86.58
2018-06-25T04:27:45.669Z,86.58
2018-06-25T04:28:53.110Z,86.49
2018-06-25T04:30:01.187Z,86.87
2018-06-25T04:31:09.246Z,86.58
2018-06-25T04:32:17.439Z,86.49
2018-06-25T04:33:25.372Z,86.58
2018-06-25T04:34:33.443Z,85.91
2018-06-25T04:35:41.502Z,86.58
2018-06-25T04:36:50.224Z,86.30
2018-06-25T04:37:57.625Z,86.77
2018-06-25T04:39:05.703Z,85.91
2018-06-25T04:40:13.830Z,86.58
2018-06-25T04:41:21.830Z,86.20
2018-06-25T04:42:29.907Z,85.82
2018-06-25T04:43:37.947Z,86.01
2018-06-25T04:44:46.437Z,86.10
2018-06-25T04:45:54.092Z,86.01
2018-06-25T04:47:02.163Z,85.91
2018-06-25T04:48:10.223Z,85.91
2018-06-25T04:49:18.304Z,86.10
2018-06-25T04:50:26.437Z,85.91
2018-06-25T04:51:34.660Z,85.34
2018-06-25T04:52:42.498Z,86.20
2018-06-25T04:53:50.554Z,86.20
2018-06-25T04:54:58.918Z,86.01
2018-06-25T04:56:06.689Z,86.10
2018-06-25T04:57:14.745Z,86.10
2018-06-25T04:58:22.821Z,85.72
2018-06-25T04:59:30.893Z,86.01
2018-06-25T05:00:38.957Z,86.10
2018-06-25T05:01:46.993Z,85.34
2018-06-25T05:02:55.082Z,85.96
2018-06-25T05:04:03.160Z,85.96
2018-06-25T05:05:11.220Z,85.77
2018-06-25T05:06:19.272Z,85.67
2018-06-25T05:07:27.337Z,84.91
2018-06-25T05:08:35.417Z,85.00
2018-06-25T05:09:43.474Z,84.91
2018-06-25T05:10:51.540Z,84.43
2018-06-25T05:11:59.599Z,84.91
2018-06-25T05:13:07.648Z,84.43
2018-06-25T05:14:15.737Z,84.33
2018-06-25T05:15:23.801Z,85.00
2018-06-25T05:16:31.885Z,84.43
2018-06-25T05:17:39.951Z,84.85
2018-06-25T05:18:48.017Z,84.38
2018-06-25T05:19:56.078Z,84.56
2018-06-25T05:21:04.140Z,84.56
2018-06-25T05:22:12.207Z,84.09
2018-06-25T05:23:20.271Z,84.56
2018-06-25T05:24:28.345Z,84.38
2018-06-25T05:25:36.410Z,83.61
2018-06-25T05:26:44.480Z,84.28
2018-06-25T05:27:52.546Z,83.84
2018-06-25T05:29:00.605Z,83.23
2018-06-25T05:30:08.678Z,83.84
2018-06-25T05:31:16.733Z,83.61
2018-06-25T05:32:24.817Z,83.08
2018-06-25T05:33:32.879Z,83.46
2018-06-25T05:34:40.946Z,83.56
2018-06-25T05:35:49.017Z,83.46
2018-06-25T05:36:57.044Z,83.70
2018-06-25T05:38:05.137Z,82.89
2018-06-25T05:39:13.215Z,82.60
2018-06-25T05:40:21.283Z,82.41
2018-06-25T05:41:29.338Z,82.70
2018-06-25T05:42:37.371Z,82.51
2018-06-25T05:43:45.485Z,82.03
2018-06-25T05:44:53.551Z,82.60
2018-06-25T05:46:01.612Z,82.12
2018-06-25T05:47:09.683Z,82.70
2018-06-25T05:48:17.718Z,82.60
2018-06-25T05:49:25.803Z,82.31
2018-06-25T05:50:33.874Z,82.31
2018-06-25T05:51:41.957Z,82.60
2018-06-25T05:52:50.024Z,81.74
2018-06-25T05:53:58.082Z,82.12
2018-06-25T05:55:06.154Z,82.31
2018-06-25T05:56:14.234Z,82.03
2018-06-25T05:57:22.273Z,81.93
2018-06-25T05:58:30.355Z,81.55
2018-06-25T05:59:38.410Z,81.65
2018-06-25T06:00:46.477Z,82.03
2018-06-25T06:01:54.546Z,82.03
2018-06-25T06:03:02.604Z,82.03
2018-06-25T06:04:10.713Z,81.16
2018-06-25T06:05:18.747Z,81.93
2018-06-25T06:06:26.803Z,82.41
2018-06-25T06:07:34.883Z,81.65
2018-06-25T06:08:42.984Z,82.31
2018-06-25T06:09:51.016Z,81.65
2018-06-25T06:10:59.092Z,81.74
2018-06-25T06:12:07.133Z,81.26
2018-06-25T06:13:15.234Z,80.50
2018-06-25T06:14:23.297Z,80.69
2018-06-25T06:15:31.353Z,81.55
2018-06-25T06:16:39.424Z,81.55
2018-06-25T06:17:47.473Z,81.45
2018-06-25T06:18:55.574Z,81.55
2018-06-25T06:20:03.641Z,81.84
2018-06-25T06:21:11.691Z,81.65
2018-06-25T06:22:19.765Z,81.26
2018-06-25T06:23:27.829Z,81.55
2018-06-25T06:24:35.892Z,79.93
2018-06-25T06:25:43.961Z,80.40
2018-06-25T06:26:52.025Z,82.03
2018-06-25T06:28:00.093Z,80.73
2018-06-25T06:29:08.171Z,81.30
2018-06-25T06:30:16.232Z,80.54
2018-06-25T06:31:24.293Z,80.25
2018-06-25T06:32:32.363Z,80.82
2018-06-25T06:33:40.433Z,80.16
2018-06-25T06:34:48.498Z,78.47
2018-06-25T06:35:56.627Z,78.19
2018-06-25T06:37:04.645Z,78.28
2018-06-25T06:38:12.716Z,77.90
2018-06-25T06:39:20.780Z,77.08
2018-06-25T06:40:28.850Z,76.31
2018-06-25T06:41:36.903Z,75.93
2018-06-25T06:42:44.984Z,76.31
2018-06-25T06:43:53.044Z,76.79
2018-06-25T06:45:01.107Z,75.93
2018-06-25T06:46:09.172Z,75.54
2018-06-25T06:47:17.219Z,76.79
2018-06-25T06:48:25.311Z,75.29
2018-06-25T06:49:33.388Z,75.77
2018-06-25T06:50:41.452Z,75.71
2018-06-25T06:51:49.539Z,74.47
2018-06-25T06:52:57.565Z,73.41
2018-06-25T06:54:05.658Z,73.03
2018-06-25T06:55:13.724Z,72.74
2018-06-25T06:56:21.801Z,72.11
2018-06-25T06:57:29.931Z,71.92
2018-06-25T06:58:37.934Z,72.59
2018-06-25T06:59:46.013Z,72.78
2018-06-25T07:00:54.072Z,73.65
2018-06-25T07:02:02.153Z,72.43
2018-06-25T07:03:10.218Z,70.42
2018-06-25T07:04:18.277Z,70.90
2018-06-25T07:05:26.352Z,69.74
2018-06-25T07:06:37.076Z,69.59
2018-06-25T07:07:45.116Z,68.85
2018-06-25T07:08:54.595Z,68.18
2018-06-25T07:10:01.250Z,68.37
2018-06-25T07:11:09.326Z,68.12
2018-06-25T07:12:17.375Z,67.00
2018-06-25T07:13:25.463Z,66.49
2018-06-25T07:14:33.555Z,67.35
2018-06-25T07:15:41.622Z,65.94
2018-06-25T07:16:49.691Z,64.40
2018-06-25T07:17:57.731Z,65.43
2018-06-25T07:19:05.824Z,66.00
2018-06-25T07:20:13.901Z,66.20
2018-06-25T07:21:21.967Z,65.23
2018-06-25T07:22:30.046Z,64.95
2018-06-25T07:23:38.119Z,64.31
2018-06-25T07:24:46.191Z,63.35
2018-06-25T07:25:54.256Z,61.26
2018-06-25T07:27:02.322Z,63.28
2018-06-25T07:28:10.396Z,63.18
2018-06-25T07:29:18.474Z,63.76
2018-06-25T07:30:26.551Z,62.03
2018-06-25T07:31:34.626Z,63.38
2018-06-25T07:32:42.714Z,65.37
2018-06-25T07:33:50.775Z,65.84
2018-06-25T07:34:58.834Z,63.64
2018-06-25T07:36:06.904Z,65.53
2018-06-25T07:37:14.989Z,66.39
2018-06-25T07:38:23.062Z,65.78
2018-06-25T07:39:31.139Z,67.70
2018-06-25T07:40:39.205Z,68.63
2018-06-25T07:41:47.245Z,68.91
2018-06-25T07:42:55.350Z,68.02
2018-06-25T07:44:03.421Z,69.56
2018-06-25T07:45:11.497Z,70.80
2018-06-25T07:46:19.563Z,69.42
2018-06-25T07:47:27.731Z,70.19
2018-06-25T07:48:35.697Z,71.34
2018-06-25T07:49:43.768Z,71.69
2018-06-25T07:50:51.858Z,72.30
2018-06-25T07:51:59.918Z,71.02
2018-06-25T07:53:08.000Z,70.09
2018-06-25T07:54:16.045Z,69.68
2018-06-25T07:55:24.132Z,70.15
2018-06-25T07:56:32.192Z,71.98
2018-06-25T07:57:40.272Z,69.29
2018-06-25T07:58:48.336Z,69.77
2018-06-25T07:59:56.409Z,70.73
2018-06-25T08:01:04.479Z,72.07
2018-06-25T08:02:12.547Z,72.27
2018-06-25T08:03:20.627Z,71.25
2018-06-25T08:04:28.687Z,71.25
2018-06-25T08:05:36.762Z,71.05
2018-06-25T08:06:44.833Z,69.33
2018-06-25T08:07:52.898Z,69.33
2018-06-25T08:09:00.964Z,69.90
2018-06-25T08:10:09.062Z,69.90
2018-06-25T08:11:17.083Z,69.81
2018-06-25T08:12:25.181Z,68.37
2018-06-25T08:13:33.249Z,68.37
2018-06-25T08:14:41.329Z,69.04
2018-06-25T08:15:49.385Z,69.81
2018-06-25T08:16:57.430Z,70.29
2018-06-25T08:18:05.517Z,70.96
2018-06-25T08:19:13.600Z,71.19
2018-06-25T08:20:21.657Z,70.13
2018-06-25T08:21:29.723Z,68.02
2018-06-25T08:22:37.791Z,68.12
2018-06-25T08:23:45.877Z,69.68
2018-06-25T08:24:53.947Z,69.11
2018-06-25T08:26:02.012Z,68.53
2018-06-25T08:27:10.083Z,66.93
2018-06-25T08:28:18.151Z,64.72
2018-06-25T08:29:26.208Z,66.07
2018-06-25T08:30:34.282Z,65.78
2018-06-25T08:31:42.348Z,65.81
2018-06-25T08:32:50.427Z,65.53
2018-06-25T08:33:58.557Z,65.23
2018-06-25T08:35:06.583Z,64.76
2018-06-25T08:36:14.645Z,64.56
2018-06-25T08:37:22.727Z,65.81
2018-06-25T08:38:30.802Z,65.84
2018-06-25T08:39:38.872Z,64.69
2018-06-25T08:40:46.913Z,64.12
2018-06-25T08:41:55.005Z,63.35
2018-06-25T08:43:09.176Z,63.54
2018-06-25T08:44:11.144Z,64.12
2018-06-25T08:45:19.208Z,64.69
2018-06-25T08:46:27.254Z,63.83
2018-06-25T08:47:35.357Z,64.40
2018-06-25T08:48:43.432Z,64.89
2018-06-25T08:49:51.493Z,62.58
2018-06-25T08:50:59.556Z,62.96
2018-06-25T08:52:07.607Z,63.45
2018-06-25T08:53:15.700Z,64.37
2018-06-25T08:54:23.770Z,62.84
2018-06-25T08:55:31.854Z,64.09
2018-06-25T08:56:39.905Z,63.06
2018-06-25T08:57:47.994Z,61.14
2018-06-25T08:58:56.100Z,62.96
2018-06-25T09:00:04.132Z,63.02
2018-06-25T09:01:12.195Z,64.28
2018-06-25T09:02:20.285Z,62.68
2018-06-25T09:03:28.340Z,63.64
2018-06-25T09:04:36.413Z,61.04
2018-06-25T09:05:44.499Z,59.34
2018-06-25T09:06:52.557Z,60.11
2018-06-25T09:08:00.626Z,61.07
2018-06-25T09:09:08.689Z,60.81
2018-06-25T09:10:16.760Z,60.42
2018-06-25T09:11:24.856Z,60.69
2018-06-25T09:12:32.910Z,60.14
2018-06-25T09:13:40.981Z,59.66
2018-06-25T09:14:49.055Z,57.45
2018-06-25T09:15:57.102Z,58.40
2018-06-25T09:17:05.216Z,60.04
2018-06-25T09:18:13.277Z,58.02
2018-06-25T09:19:21.336Z,58.28
2018-06-25T09:20:29.412Z,58.18
2018-06-25T09:21:37.454Z,56.74
2018-06-25T09:22:45.559Z,58.83
2018-06-25T09:23:53.626Z,60.85
2018-06-25T09:25:01.696Z,61.04
2018-06-25T09:26:09.758Z,60.56
2018-06-25T09:27:17.850Z,60.43
2018-06-25T09:28:25.901Z,61.49
2018-06-25T09:29:33.978Z,61.40
2018-06-25T09:30:42.047Z,62.55
2018-06-25T09:31:50.123Z,62.45
2018-06-25T09:32:58.199Z,59.89
2018-06-25T09:34:06.260Z,61.20
2018-06-25T09:35:14.363Z,63.12
2018-06-25T09:36:22.400Z,63.06
2018-06-25T09:37:30.517Z,62.48
2018-06-25T09:38:38.550Z,62.77
2018-06-25T09:39:46.621Z,62.48
2018-06-25T09:40:54.735Z,62.00
2018-06-25T09:42:02.772Z,61.07
2018-06-25T09:43:10.880Z,61.07
2018-06-25T09:44:18.904Z,62.32
2018-06-25T09:45:26.968Z,62.19
2018-06-25T09:46:35.058Z,61.52
2018-06-25T09:47:43.118Z,61.16
2018-06-25T09:48:51.202Z,60.69
2018-06-25T09:49:59.254Z,60.01
2018-06-25T09:51:07.302Z,59.44
2018-06-25T09:52:15.393Z,59.12
2018-06-25T09:53:23.475Z,60.37
2018-06-25T09:54:31.537Z,61.33
2018-06-25T09:55:39.617Z,60.94
2018-06-25T09:56:47.692Z,58.92
2018-06-25T09:57:55.759Z,58.51
2018-06-25T09:59:03.837Z,60.43
2018-06-25T10:00:11.901Z,62.71
2018-06-25T10:01:19.977Z,64.63
2018-06-25T10:02:28.048Z,64.05
2018-06-25T10:03:36.349Z,64.34
2018-06-25T10:04:44.176Z,62.42
2018-06-25T10:05:52.248Z,63.86
2018-06-25T10:07:00.351Z,63.57
2018-06-25T10:08:08.402Z,62.90
2018-06-25T10:09:16.525Z,63.09
2018-06-25T10:10:25.937Z,64.53
2018-06-25T10:11:32.625Z,66.16
2018-06-25T10:12:40.687Z,65.69
2018-06-25T10:13:48.744Z,64.05
2018-06-25T10:14:56.798Z,63.25
2018-06-25T10:16:04.882Z,64.50
2018-06-25T10:17:12.955Z,62.87
2018-06-25T10:18:21.037Z,64.79
2018-06-25T10:19:29.089Z,65.84
2018-06-25T10:20:37.163Z,65.94
2018-06-25T10:21:45.250Z,66.80
2018-06-25T10:22:53.302Z,66.90
2018-06-25T10:24:01.371Z,65.27
2018-06-25T10:25:09.444Z,65.78
2018-06-25T10:26:17.496Z,64.53
2018-06-25T10:27:25.589Z,63.96
2018-06-25T10:28:33.683Z,64.05
2018-06-25T10:29:41.728Z,61.78
2018-06-25T10:30:49.804Z,63.70
2018-06-25T10:31:57.866Z,62.04
2018-06-25T10:33:05.928Z,61.84
2018-06-25T10:34:14.009Z,61.65
2018-06-25T10:35:22.082Z,64.63
2018-06-25T10:36:30.149Z,64.63
2018-06-25T10:37:38.223Z,61.46
2018-06-25T10:38:46.294Z,62.32
2018-06-25T10:39:54.393Z,64.43
2018-06-25T10:41:02.444Z,65.30
2018-06-25T10:42:10.648Z,66.03
2018-06-25T10:43:18.576Z,63.09
2018-06-25T10:44:26.633Z,63.64
2018-06-25T10:45:34.713Z,64.15
2018-06-25T10:46:42.771Z,63.48
2018-06-25T10:47:50.846Z,65.59
2018-06-25T10:48:58.922Z,64.92
2018-06-25T10:50:06.962Z,64.82
2018-06-25T10:51:15.057Z,62.26
2018-06-25T10:52:23.143Z,59.99
2018-06-25T10:53:31.206Z,59.79
2018-06-25T10:54:39.285Z,60.56
2018-06-25T10:55:47.313Z,58.57
2018-06-25T10:56:55.409Z,58.47
2018-06-25T10:58:03.487Z,58.67
2018-06-25T10:59:11.547Z,58.54
2018-06-25T11:00:19.670Z,59.41
2018-06-25T11:01:27.671Z,59.89
2018-06-25T11:02:35.771Z,60.66
2018-06-25T11:04:51.905Z,58.70
2018-06-25T11:06:00.043Z,55.07
2018-06-25T11:07:08.155Z,55.55
2018-06-25T11:08:16.324Z,56.41
2018-06-25T11:09:24.194Z,55.65
2018-06-25T11:10:32.876Z,56.41
2018-06-25T11:11:40.336Z,57.18
2018-06-25T11:12:48.442Z,59.20
2018-06-25T11:13:56.482Z,57.95
2018-06-25T11:15:04.552Z,59.52
2018-06-25T11:16:12.610Z,58.49
2018-06-25T11:17:20.704Z,55.99
2018-06-25T11:18:28.758Z,53.51
2018-06-25T11:19:39.888Z,53.41
2018-06-25T11:20:44.902Z,53.34
2018-06-25T11:21:52.990Z,52.95
2018-06-25T11:23:01.064Z,49.77
2018-06-25T11:24:09.114Z,53.05
2018-06-25T11:25:17.168Z,51.89
2018-06-25T11:26:25.259Z,53.44
2018-06-25T11:27:33.433Z,49.48
2018-06-25T11:28:41.399Z,50.64
2018-06-25T11:29:49.480Z,53.44
2018-06-25T11:30:57.518Z,53.41
2018-06-25T11:32:05.630Z,49.84
2018-06-25T11:33:13.700Z,51.77
2018-06-25T11:34:21.772Z,54.09
2018-06-25T11:35:29.846Z,51.46
2018-06-25T11:36:37.911Z,53.19
2018-06-25T11:37:45.973Z,55.79
2018-06-25T11:38:54.061Z,53.96
2018-06-25T11:40:02.144Z,53.96
2018-06-25T11:41:10.208Z,56.09
2018-06-25T11:42:18.278Z,54.44
2018-06-25T11:43:26.342Z,54.80
2018-06-25T11:44:34.430Z,54.74
2018-06-25T11:45:42.496Z,55.57
2018-06-25T11:46:50.562Z,57.31
2018-06-25T11:47:58.646Z,56.85
2018-06-25T11:49:06.693Z,56.47
2018-06-25T11:50:14.792Z,55.82
2018-06-25T11:51:22.851Z,54.86
2018-06-25T11:52:30.924Z,54.40
2018-06-25T11:53:38.998Z,55.46
2018-06-25T11:54:47.036Z,53.31
2018-06-25T11:55:55.139Z,53.80
2018-06-25T11:57:03.217Z,52.73
2018-06-25T11:58:11.296Z,51.61
2018-06-25T11:59:19.368Z,52.25
2018-06-25T12:00:27.396Z,49.17
2018-06-25T12:01:35.550Z,48.33
2018-06-25T12:02:43.766Z,49.77
2018-06-25T12:03:51.656Z,53.08
2018-06-25T12:04:59.724Z,53.05
2018-06-25T12:06:07.785Z,51.15
2018-06-25T12:07:15.868Z,51.82
2018-06-25T12:08:23.929Z,51.15
2018-06-25T12:09:32.096Z,50.31
2018-06-25T12:10:40.099Z,49.05
2018-06-25T12:11:48.159Z,49.44
2018-06-25T12:12:56.227Z,48.35
2018-06-25T12:14:04.311Z,48.93
2018-06-25T12:15:12.375Z,49.19
2018-06-25T12:16:20.452Z,51.32
2018-06-25T12:17:28.529Z,50.23
2018-06-25T12:18:36.580Z,50.90
2018-06-25T12:19:44.679Z,49.46
2018-06-25T12:20:52.734Z,50.01
2018-06-25T12:22:00.793Z,50.98
2018-06-25T12:23:08.948Z,49.53
2018-06-25T12:24:16.966Z,50.98
2018-06-25T12:25:25.043Z,50.37
2018-06-25T12:26:33.117Z,51.53
2018-06-25T12:27:41.224Z,51.24
2018-06-25T12:28:49.255Z,52.69
2018-06-25T12:29:57.294Z,51.53
2018-06-25T12:31:05.412Z,51.43
2018-06-25T12:32:13.683Z,52.71
2018-06-25T12:33:21.547Z,50.40
2018-06-25T12:34:29.611Z,52.81
2018-06-25T12:35:37.670Z,49.73
2018-06-25T12:36:45.756Z,51.29
2018-06-25T12:37:53.934Z,51.87
2018-06-25T12:39:01.919Z,49.75
2018-06-25T12:40:09.997Z,50.81
2018-06-25T12:41:18.047Z,50.16
2018-06-25T12:42:26.113Z,48.52
2018-06-25T12:43:34.193Z,49.77
2018-06-25T12:44:42.269Z,47.75
2018-06-25T12:45:50.327Z,47.96
2018-06-25T12:46:58.397Z,49.41
2018-06-25T12:48:06.489Z,48.52
2018-06-25T12:49:14.554Z,48.33
2018-06-25T12:50:22.637Z,48.06
2018-06-25T12:51:30.690Z,48.54
2018-06-25T12:52:38.787Z,47.29
2018-06-25T12:53:46.866Z,48.83
2018-06-25T12:54:54.936Z,48.93
2018-06-25T12:56:02.987Z,49.70
2018-06-25T12:57:11.200Z,50.31
2018-06-25T12:58:19.137Z,50.31
2018-06-25T12:59:27.186Z,49.82
2018-06-25T13:00:35.290Z,48.18
2018-06-25T13:01:43.371Z,47.22
2018-06-25T13:02:51.419Z,45.96
2018-06-25T13:03:59.498Z,46.75
2018-06-25T13:05:07.543Z,45.01
2018-06-25T13:06:15.666Z,46.27
2018-06-25T13:07:23.724Z,47.22
2018-06-25T13:08:31.804Z,48.76
2018-06-25T13:09:39.875Z,48.44
2018-06-25T13:10:47.988Z,47.58
2018-06-25T13:11:56.009Z,47.29
2018-06-25T13:13:04.089Z,47.96
2018-06-25T13:14:12.152Z,46.51
2018-06-25T13:15:20.238Z,46.33
2018-06-25T13:16:28.289Z,47.94
2018-06-25T13:17:36.384Z,48.23
2018-06-25T13:18:44.456Z,49.46
2018-06-25T13:19:52.521Z,49.75
2018-06-25T13:21:00.604Z,47.92
2018-06-25T13:22:08.663Z,50.13
2018-06-25T13:23:16.744Z,49.94
2018-06-25T13:24:24.805Z,50.71
2018-06-25T13:25:32.982Z,50.30
2018-06-25T13:26:40.958Z,50.23
2018-06-25T13:27:49.031Z,52.83
2018-06-25T13:28:57.077Z,51.87
2018-06-25T13:30:05.181Z,51.56
2018-06-25T13:31:13.382Z,50.59
2018-06-25T13:32:21.328Z,51.36
2018-06-25T13:33:29.399Z,52.04
2018-06-25T13:34:37.442Z,50.49
2018-06-25T13:35:45.539Z,50.59
2018-06-25T13:36:53.605Z,51.94
2018-06-25T13:38:01.681Z,51.84
2018-06-25T13:39:09.755Z,50.69
2018-06-25T13:40:17.814Z,50.59
2018-06-25T13:41:25.972Z,54.32
2018-06-25T13:42:33.969Z,55.57
2018-06-25T13:43:42.039Z,56.18
2018-06-25T13:44:50.115Z,55.67
2018-06-25T13:45:58.182Z,55.51
2018-06-25T13:47:06.256Z,51.46
2018-06-25T13:48:14.353Z,51.75
2018-06-25T13:49:22.397Z,53.48
2018-06-25T13:50:30.460Z,51.94
2018-06-25T13:51:38.529Z,52.13
2018-06-25T13:52:46.608Z,52.04
2018-06-25T13:53:54.687Z,51.48
2018-06-25T13:55:02.752Z,50.45
2018-06-25T13:56:10.819Z,50.35
2018-06-25T13:57:18.896Z,50.74
2018-06-25T13:58:26.933Z,47.77
2018-06-25T13:59:35.034Z,45.65
2018-06-25T14:00:43.124Z,45.65
2018-06-25T14:01:51.180Z,46.20
2018-06-25T14:02:59.255Z,47.94
2018-06-25T14:04:07.294Z,48.18
2018-06-25T14:05:15.394Z,49.43
2018-06-25T14:06:23.475Z,50.40
2018-06-25T14:07:31.544Z,52.42
2018-06-25T14:08:39.610Z,51.84
2018-06-25T14:09:47.695Z,53.77
2018-06-25T14:10:55.752Z,54.74
2018-06-25T14:12:03.827Z,51.17
2018-06-25T14:13:11.900Z,50.88
2018-06-25T14:14:19.989Z,52.78
2018-06-25T14:15:28.037Z,53.84
2018-06-25T14:16:36.297Z,52.97
2018-06-25T14:17:44.180Z,53.07
2018-06-25T14:18:52.272Z,53.07
2018-06-25T14:20:00.390Z,53.17
2018-06-25T14:21:08.409Z,53.27
2018-06-25T14:22:16.479Z,51.43
2018-06-25T14:23:24.536Z,53.84
2018-06-25T14:24:32.611Z,52.87
2018-06-25T14:25:40.688Z,54.06
2018-06-25T14:26:48.759Z,55.02
2018-06-25T14:27:56.812Z,53.77
2018-06-25T14:29:04.897Z,53.39
2018-06-25T14:30:12.982Z,53.29
2018-06-25T14:31:21.025Z,55.02
2018-06-25T14:32:29.118Z,53.96
2018-06-25T14:33:37.169Z,54.96
2018-06-25T14:34:45.258Z,51.97
2018-06-25T14:35:53.337Z,49.58
2018-06-25T14:37:01.393Z,49.48